createdAt,value
2023-01-19T00:02:37.034Z,98813.84
2023-01-19T00:05:38.894Z,98820.63
2023-01-19T00:08:40.861Z,98821.47
2023-01-19T00:11:42.894Z,98817.13
2023-01-19T00:14:44.834Z,98805.00
2023-01-19T00:17:46.887Z,98799.06
2023-01-19T00:20:48.910Z,98805.34
2023-01-19T00:23:52.832Z,98819.72
2023-01-19T00:26:54.862Z,98816.28
2023-01-19T00:29:56.820Z,98810.25
2023-01-19T00:32:59.121Z,98811.87
2023-01-19T00:36:01.460Z,98816.62
2023-01-19T00:39:03.381Z,98819.25
2023-01-19T00:42:24.102Z,98823.00
2023-01-19T00:45:26.263Z,98809.28
2023-01-19T00:48:28.353Z,98814.34
2023-01-19T00:51:30.507Z,98821.66
2023-01-19T00:54:32.386Z,98813.19
2023-01-19T00:57:34.306Z,98800.53
2023-01-19T01:00:36.162Z,98802.84
2023-01-19T01:03:38.219Z,98802.31
2023-01-19T01:06:40.361Z,98799.81
2023-01-19T01:09:42.295Z,98800.28
2023-01-19T01:12:56.389Z,98806.50
2023-01-19T01:15:59.409Z,98802.16
2023-01-19T01:19:01.282Z,98795.41
2023-01-19T01:22:03.332Z,98787.16
2023-01-19T01:25:05.623Z,98791.31
2023-01-19T01:28:08.752Z,98794.47
2023-01-19T01:31:10.913Z,98805.78
2023-01-19T01:34:12.874Z,98808.62
2023-01-19T01:37:14.733Z,98804.72
2023-01-19T01:40:17.555Z,98801.75
2023-01-19T01:43:20.633Z,98794.59
2023-01-19T01:46:22.532Z,98799.34
2023-01-19T01:49:24.503Z,98799.59
2023-01-19T01:52:26.618Z,98806.44
2023-01-19T01:55:28.571Z,98803.56
2023-01-19T01:58:30.606Z,98808.94
2023-01-19T02:01:51.347Z,98807.34
2023-01-19T02:04:54.557Z,98817.97
2023-01-19T02:08:16.777Z,98824.81
2023-01-19T02:11:37.076Z,98842.47
2023-01-19T02:14:39.120Z,98845.84
2023-01-19T02:17:41.041Z,98826.00
2023-01-19T02:20:45.454Z,98803.87
2023-01-19T02:23:51.223Z,98771.88
2023-01-19T02:26:53.236Z,98777.34
2023-01-19T02:29:55.169Z,98806.59
2023-01-19T02:32:57.106Z,98821.34
2023-01-19T02:35:59.193Z,98843.72
2023-01-19T02:39:01.053Z,98842.97
2023-01-19T02:42:04.301Z,98825.09
2023-01-19T02:45:06.847Z,98805.69
2023-01-19T02:48:08.739Z,98817.25
2023-01-19T02:51:31.125Z,98800.22
2023-01-19T02:54:37.382Z,98782.37
2023-01-19T02:57:47.934Z,98782.75
2023-01-19T03:00:55.510Z,98797.88
2023-01-19T03:04:06.710Z,98818.53
2023-01-19T03:07:13.668Z,98820.22
2023-01-19T03:10:21.902Z,98823.72
2023-01-19T03:13:42.605Z,98808.25
2023-01-19T03:16:47.312Z,98811.78
2023-01-19T03:19:49.757Z,98831.22
2023-01-19T03:22:53.442Z,98842.94
2023-01-19T03:25:55.343Z,98853.81
2023-01-19T03:28:57.755Z,98857.19
2023-01-19T03:32:00.001Z,98835.19
2023-01-19T03:35:03.097Z,98821.66
2023-01-19T03:38:06.258Z,98812.97
2023-01-19T03:41:14.506Z,98794.38
2023-01-19T03:44:16.745Z,98765.91
2023-01-19T03:47:18.586Z,98753.94
2023-01-19T03:50:30.564Z,98765.38
2023-01-19T03:53:32.568Z,98773.63
2023-01-19T03:56:34.537Z,98781.09
2023-01-19T03:59:36.571Z,98789.59
2023-01-19T04:02:38.517Z,98789.06
2023-01-19T04:05:40.404Z,98824.91
2023-01-19T04:08:42.425Z,98827.37
2023-01-19T04:11:44.405Z,98816.59
2023-01-19T04:14:46.571Z,98797.37
2023-01-19T04:17:48.497Z,98828.63
2023-01-19T04:20:50.525Z,98812.78
2023-01-19T04:23:53.342Z,98824.69
2023-01-19T04:26:55.242Z,98822.56
2023-01-19T04:29:57.136Z,98812.22
2023-01-19T04:32:59.759Z,98832.19
2023-01-19T04:36:02.030Z,98811.66
2023-01-19T04:39:05.032Z,98806.75
2023-01-19T04:42:07.914Z,98809.16
2023-01-19T04:45:10.023Z,98802.72
2023-01-19T04:48:12.286Z,98800.06
2023-01-19T04:51:14.517Z,98788.38
2023-01-19T04:54:16.657Z,98792.09
2023-01-19T04:57:18.972Z,98797.25
2023-01-19T05:00:21.108Z,98811.78
2023-01-19T05:03:24.960Z,98797.69
2023-01-19T05:06:27.598Z,98821.72
2023-01-19T05:09:29.630Z,98838.16
2023-01-19T05:12:31.794Z,98853.41
2023-01-19T05:15:33.832Z,98842.59
2023-01-19T05:18:37.240Z,98822.56
2023-01-19T05:21:39.163Z,98837.25
2023-01-19T05:24:41.133Z,98856.50
2023-01-19T05:27:43.344Z,98862.72
2023-01-19T05:30:45.300Z,98866.69
2023-01-19T05:33:48.359Z,98865.44
2023-01-19T05:36:50.216Z,98861.41
2023-01-19T05:39:52.397Z,98865.03
2023-01-19T05:42:54.531Z,98857.56
2023-01-19T05:45:57.483Z,98870.59
2023-01-19T05:49:02.003Z,98868.19
2023-01-19T05:52:03.898Z,98852.09
2023-01-19T05:55:06.227Z,98850.69
2023-01-19T05:58:08.299Z,98858.47
2023-01-19T06:01:10.463Z,98845.44
2023-01-19T06:04:12.474Z,98818.81
2023-01-19T06:07:14.457Z,98809.22
2023-01-19T06:10:16.567Z,98828.63
2023-01-19T06:13:18.534Z,98832.25
2023-01-19T06:16:20.521Z,98821.91
2023-01-19T06:19:22.718Z,98806.38
2023-01-19T06:22:25.306Z,98816.78
2023-01-19T06:25:27.193Z,98825.69
2023-01-19T06:28:29.209Z,98815.34
2023-01-19T06:31:31.199Z,98805.72
2023-01-19T06:34:33.115Z,98806.03
2023-01-19T06:37:36.124Z,98803.69
2023-01-19T06:40:38.006Z,98817.81
2023-01-19T06:43:40.134Z,98841.13
2023-01-19T06:46:42.165Z,98855.34
2023-01-19T06:49:44.148Z,98853.31
2023-01-19T06:52:46.341Z,98855.09
2023-01-19T06:55:48.498Z,98852.66
2023-01-19T06:58:54.346Z,98841.31
2023-01-19T07:01:57.106Z,98856.53
2023-01-19T07:04:59.051Z,98844.34
2023-01-19T07:08:01.234Z,98844.63
2023-01-19T07:11:26.263Z,98837.09
2023-01-19T07:14:33.607Z,98825.28
2023-01-19T07:17:35.735Z,98825.13
2023-01-19T07:20:38.208Z,98819.94
2023-01-19T07:23:40.087Z,98837.25
2023-01-19T07:26:42.484Z,98858.03
2023-01-19T07:29:44.608Z,98859.94
2023-01-19T07:32:46.585Z,98861.72
2023-01-19T07:35:49.082Z,98860.72
2023-01-19T07:38:51.116Z,98848.09
2023-01-19T07:41:53.013Z,98853.62
2023-01-19T07:44:55.867Z,98859.44
2023-01-19T07:48:00.117Z,98862.62
2023-01-19T07:51:05.515Z,98858.19
2023-01-19T07:54:08.684Z,98871.56
2023-01-19T07:57:10.800Z,98872.47
2023-01-19T08:00:14.559Z,98879.72
2023-01-19T08:03:17.927Z,98884.00
2023-01-19T08:06:24.055Z,98890.47
2023-01-19T08:09:26.048Z,98876.66
2023-01-19T08:12:28.113Z,98873.47
2023-01-19T08:15:30.216Z,98870.72
2023-01-19T08:18:32.201Z,98864.34
2023-01-19T08:21:35.961Z,98852.81
2023-01-19T08:24:37.907Z,98831.12
2023-01-19T08:27:39.983Z,98859.03
2023-01-19T08:30:43.938Z,98861.47
2023-01-19T08:33:45.991Z,98860.19
2023-01-19T08:36:48.246Z,98869.72
2023-01-19T08:39:50.387Z,98876.56
2023-01-19T08:42:52.275Z,98874.06
2023-01-19T08:45:56.170Z,98870.84
2023-01-19T08:48:58.636Z,98860.50
2023-01-19T08:52:00.562Z,98869.47
2023-01-19T08:55:02.602Z,98883.81
2023-01-19T08:58:04.785Z,98872.72
2023-01-19T09:01:08.279Z,98878.59
2023-01-19T09:04:10.227Z,98877.06
2023-01-19T09:07:12.668Z,98876.34
2023-01-19T09:10:15.155Z,98862.12
2023-01-19T09:13:18.655Z,98867.97
2023-01-19T09:16:20.653Z,98862.53
2023-01-19T09:19:22.610Z,98855.44
2023-01-19T09:22:24.975Z,98870.47
2023-01-19T09:25:27.154Z,98890.00
2023-01-19T09:28:31.981Z,98877.56
2023-01-19T09:31:34.181Z,98876.03
2023-01-19T09:34:36.263Z,98862.75
2023-01-19T09:37:38.576Z,98875.16
2023-01-19T09:40:42.258Z,98887.84
2023-01-19T09:43:47.863Z,98877.78
2023-01-19T09:46:50.178Z,98876.56
2023-01-19T09:50:12.554Z,98868.84
2023-01-19T09:53:16.991Z,98861.00
2023-01-19T09:56:19.652Z,98882.72
2023-01-19T09:59:23.245Z,98876.47
2023-01-19T10:02:25.556Z,98878.47
2023-01-19T10:05:30.997Z,98889.59
2023-01-19T10:08:44.740Z,98883.00
2023-01-19T10:11:53.132Z,98883.84
2023-01-19T10:15:02.011Z,98891.53
2023-01-19T10:18:04.086Z,98887.56
2023-01-19T10:21:12.315Z,98886.88
2023-01-19T10:24:34.566Z,98903.63
2023-01-19T10:27:38.403Z,98900.28
2023-01-19T10:30:42.536Z,98899.50
2023-01-19T10:33:44.546Z,98893.81
2023-01-19T10:36:47.698Z,98899.72
2023-01-19T10:39:53.236Z,98894.50
2023-01-19T10:42:55.532Z,98906.22
2023-01-19T10:45:57.409Z,98909.81
2023-01-19T10:48:59.403Z,98914.13
2023-01-19T10:52:01.402Z,98907.12
2023-01-19T10:55:03.813Z,98911.00
2023-01-19T10:58:06.427Z,98917.44
2023-01-19T11:01:14.651Z,98923.00
2023-01-19T11:04:21.597Z,98922.50
2023-01-19T11:07:23.694Z,98923.25
2023-01-19T11:10:26.683Z,98923.38
2023-01-19T11:13:28.549Z,98921.91
2023-01-19T11:16:31.246Z,98923.34
2023-01-19T11:19:33.175Z,98922.34
2023-01-19T11:22:34.996Z,98915.53
2023-01-19T11:25:37.390Z,98918.44
2023-01-19T11:28:45.039Z,98910.87
2023-01-19T11:31:47.807Z,98913.25
2023-01-19T11:34:50.408Z,98915.94
2023-01-19T11:37:52.620Z,98922.84
2023-01-19T11:40:55.397Z,98920.63
2023-01-19T11:44:03.534Z,98929.97
2023-01-19T11:47:06.538Z,98933.59
2023-01-19T11:50:16.212Z,98929.22
2023-01-19T11:53:25.376Z,98933.44
2023-01-19T11:56:29.083Z,98931.00
2023-01-19T11:59:33.698Z,98934.19
2023-01-19T12:02:45.119Z,98930.28
2023-01-19T12:05:48.492Z,98950.06
2023-01-19T12:08:53.371Z,98956.44
2023-01-19T12:11:57.267Z,98953.84
2023-01-19T12:14:59.551Z,98953.53
2023-01-19T12:18:02.223Z,98969.91
2023-01-19T12:21:04.618Z,98967.16
2023-01-19T12:24:12.863Z,98972.44
2023-01-19T12:27:27.385Z,98968.50
2023-01-19T12:30:29.506Z,98984.97
2023-01-19T12:33:38.789Z,98965.91
2023-01-19T12:36:41.398Z,98989.56
2023-01-19T12:39:48.037Z,98994.09
2023-01-19T12:42:53.964Z,98989.25
2023-01-19T12:45:56.075Z,98992.81
2023-01-19T12:49:21.338Z,98995.72
2023-01-19T12:52:23.333Z,99008.84
2023-01-19T12:55:28.176Z,99015.69
2023-01-19T12:58:30.199Z,99015.34
2023-01-19T13:01:37.053Z,99005.84
2023-01-19T13:04:39.496Z,99015.34
2023-01-19T13:08:00.386Z,99012.06
2023-01-19T13:11:08.139Z,99024.50
2023-01-19T13:14:29.113Z,99035.22
2023-01-19T13:17:34.608Z,99040.63
2023-01-19T13:20:43.807Z,99064.69
2023-01-19T13:23:51.718Z,99078.78
2023-01-19T13:26:55.542Z,99069.69
2023-01-19T13:29:57.535Z,99077.63
2023-01-19T13:33:03.743Z,99085.72
2023-01-19T13:36:05.892Z,99086.75
2023-01-19T13:39:11.490Z,99090.09
2023-01-19T13:42:14.908Z,99103.97
2023-01-19T13:45:19.140Z,99108.84
2023-01-19T13:48:22.379Z,99116.72
2023-01-19T13:51:24.277Z,99122.69
2023-01-19T13:54:26.541Z,99126.88
2023-01-19T13:57:29.575Z,99129.25
2023-01-19T14:00:31.626Z,99129.50
2023-01-19T14:03:33.522Z,99139.09
2023-01-19T14:06:47.679Z,99142.84
2023-01-19T14:10:09.464Z,99144.72
2023-01-19T14:13:21.638Z,99137.31
2023-01-19T14:16:27.893Z,99137.47
2023-01-19T14:19:30.218Z,99144.06
2023-01-19T14:22:42.288Z,99124.37
2023-01-19T14:25:44.605Z,99116.50
2023-01-19T14:28:47.440Z,99115.75
2023-01-19T14:31:49.769Z,99130.09
2023-01-19T14:34:51.987Z,99126.09
2023-01-19T14:37:53.862Z,99143.84
2023-01-19T14:40:55.807Z,99141.91
2023-01-19T14:43:57.972Z,99150.34
2023-01-19T14:47:00.127Z,99151.41
2023-01-19T14:50:07.901Z,99158.22
2023-01-19T14:53:21.352Z,99162.53
2023-01-19T14:56:27.489Z,99180.59
2023-01-19T14:59:29.471Z,99184.22
2023-01-19T15:02:31.591Z,99191.84
2023-01-19T15:05:33.624Z,99203.03
2023-01-19T15:08:37.597Z,99219.84
2023-01-19T15:11:39.491Z,99236.22
2023-01-19T15:14:41.423Z,99255.50
2023-01-19T15:17:43.407Z,99260.56
2023-01-19T15:20:45.357Z,99246.47
2023-01-19T15:23:47.745Z,99234.56
2023-01-19T15:26:49.795Z,99232.66
2023-01-19T15:29:51.914Z,99210.13
2023-01-19T15:32:53.831Z,99232.88
2023-01-19T15:35:55.751Z,99230.19
2023-01-19T15:38:57.686Z,99246.50
2023-01-19T15:41:59.598Z,99249.78
2023-01-19T15:45:01.824Z,99256.97
2023-01-19T15:48:05.212Z,99260.06
2023-01-19T15:51:11.526Z,99243.47
2023-01-19T15:54:16.856Z,99259.09
2023-01-19T15:57:18.764Z,99274.88
2023-01-19T16:00:20.703Z,99267.38
2023-01-19T16:03:24.456Z,99277.44
2023-01-19T16:06:26.366Z,99294.97
2023-01-19T16:09:28.533Z,99320.25
2023-01-19T16:12:30.504Z,99309.84
2023-01-19T16:15:34.445Z,99306.44
2023-01-19T16:18:36.298Z,99313.41
2023-01-19T16:21:38.237Z,99326.34
2023-01-19T16:24:40.207Z,99347.88
2023-01-19T16:27:42.252Z,99350.78
2023-01-19T16:30:44.256Z,99336.69
2023-01-19T16:33:46.083Z,99351.63
2023-01-19T16:36:47.965Z,99355.84
2023-01-19T16:39:50.657Z,99377.34
2023-01-19T16:42:52.623Z,99382.19
2023-01-19T16:45:59.095Z,99388.59
2023-01-19T16:49:03.874Z,99408.50
2023-01-19T16:52:06.067Z,99418.84
2023-01-19T16:55:09.678Z,99422.91
2023-01-19T16:58:11.766Z,99413.22
2023-01-19T17:01:19.899Z,99420.09
2023-01-19T17:04:22.539Z,99409.88
2023-01-19T17:07:24.412Z,99430.25
2023-01-19T17:10:26.455Z,99433.19
2023-01-19T17:13:29.623Z,99428.75
2023-01-19T17:16:32.137Z,99459.03
2023-01-19T17:19:34.099Z,99449.59
2023-01-19T17:22:35.903Z,99445.91
2023-01-19T17:25:37.766Z,99462.16
2023-01-19T17:28:39.785Z,99473.75
2023-01-19T17:31:41.958Z,99480.19
2023-01-19T17:34:43.817Z,99473.84
2023-01-19T17:37:45.730Z,99487.56
2023-01-19T17:40:47.807Z,99478.34
2023-01-19T17:43:53.128Z,99474.44
2023-01-19T17:46:56.576Z,99479.69
2023-01-19T17:49:59.409Z,99486.09
2023-01-19T17:53:01.626Z,99488.06
2023-01-19T17:56:07.729Z,99491.88
2023-01-19T17:59:09.624Z,99492.31
2023-01-19T18:02:11.665Z,99495.03
2023-01-19T18:05:14.808Z,99498.34
2023-01-19T18:08:16.667Z,99509.38
2023-01-19T18:11:19.788Z,99502.03
2023-01-19T18:14:21.667Z,99501.69
2023-01-19T18:17:23.526Z,99512.38
2023-01-19T18:20:25.739Z,99512.53
2023-01-19T18:23:28.031Z,99519.59
2023-01-19T18:26:30.335Z,99512.16
2023-01-19T18:29:32.322Z,99506.53
2023-01-19T18:32:34.626Z,99502.09
2023-01-19T18:35:38.520Z,99520.87
2023-01-19T18:38:40.660Z,99512.25
2023-01-19T18:41:42.825Z,99526.44
2023-01-19T18:44:44.851Z,99533.94
2023-01-19T18:47:46.702Z,99526.50
2023-01-19T18:50:48.520Z,99530.53
2023-01-19T18:53:50.554Z,99527.87
2023-01-19T18:56:52.475Z,99526.72
2023-01-19T18:59:54.472Z,99525.84
2023-01-19T19:02:57.704Z,99526.31
2023-01-19T19:06:03.830Z,99532.59
2023-01-19T19:09:05.821Z,99538.66
2023-01-19T19:12:09.712Z,99540.88
2023-01-19T19:15:11.827Z,99556.59
2023-01-19T19:18:14.068Z,99557.16
2023-01-19T19:21:16.504Z,99556.84
2023-01-19T19:24:18.442Z,99562.62
2023-01-19T19:27:20.339Z,99561.53
2023-01-19T19:30:22.420Z,99563.62
2023-01-19T19:33:24.371Z,99585.00
2023-01-19T19:36:27.129Z,99593.06
2023-01-19T19:39:29.155Z,99581.09
2023-01-19T19:42:31.145Z,99597.97
2023-01-19T19:45:33.101Z,99592.50
2023-01-19T19:48:35.971Z,99599.25
2023-01-19T19:51:38.627Z,99607.78
2023-01-19T19:54:40.678Z,99605.53
2023-01-19T19:57:42.568Z,99610.69
2023-01-19T20:00:46.002Z,99599.28
2023-01-19T20:03:48.018Z,99617.34
2023-01-19T20:06:50.166Z,99622.22
2023-01-19T20:09:53.531Z,99619.69
2023-01-19T20:12:55.500Z,99619.66
2023-01-19T20:15:57.397Z,99619.22
2023-01-19T20:18:59.429Z,99612.66
2023-01-19T20:22:01.423Z,99610.44
2023-01-19T20:25:03.355Z,99614.53
2023-01-19T20:28:05.418Z,99609.59
2023-01-19T20:31:08.191Z,99605.50
2023-01-19T20:34:11.051Z,99623.66
2023-01-19T20:37:13.032Z,99628.34
2023-01-19T20:40:15.292Z,99633.09
2023-01-19T20:43:17.382Z,99618.97
2023-01-19T20:46:19.466Z,99631.25
2023-01-19T20:49:21.536Z,99631.91
2023-01-19T20:52:23.667Z,99635.78
2023-01-19T20:55:25.611Z,99631.19
2023-01-19T20:58:27.656Z,99628.81
2023-01-19T21:01:29.864Z,99612.81
2023-01-19T21:04:31.839Z,99601.38
2023-01-19T21:07:33.822Z,99612.28
2023-01-19T21:10:35.747Z,99617.41
2023-01-19T21:13:38.294Z,99627.66
2023-01-19T21:16:40.201Z,99632.31
2023-01-19T21:19:42.148Z,99626.47
2023-01-19T21:22:44.060Z,99628.56
2023-01-19T21:25:52.850Z,99632.94
2023-01-19T21:28:54.735Z,99635.66
2023-01-19T21:31:56.829Z,99626.34
2023-01-19T21:34:58.723Z,99637.78
2023-01-19T21:38:00.568Z,99642.44
2023-01-19T21:41:07.032Z,99652.25
2023-01-19T21:44:09.654Z,99657.87
2023-01-19T21:47:11.930Z,99682.00
2023-01-19T21:50:13.850Z,99683.44
2023-01-19T21:53:15.701Z,99718.19
2023-01-19T21:56:17.666Z,99747.78
2023-01-19T21:59:20.449Z,99748.53
2023-01-19T22:02:37.544Z,99755.56
2023-01-19T22:05:39.937Z,99755.66
2023-01-19T22:08:41.983Z,99711.75
2023-01-19T22:11:43.920Z,99692.72
2023-01-19T22:14:45.810Z,99685.28
2023-01-19T22:17:47.627Z,99698.13
2023-01-19T22:20:49.621Z,99711.87
2023-01-19T22:23:52.254Z,99718.13
2023-01-19T22:26:54.105Z,99707.69
2023-01-19T22:29:55.995Z,99692.56
2023-01-19T22:32:58.050Z,99697.88
2023-01-19T22:36:10.132Z,99692.66
2023-01-19T22:39:12.587Z,99709.56
2023-01-19T22:42:14.464Z,99708.84
2023-01-19T22:45:16.470Z,99698.25
2023-01-19T22:48:18.322Z,99690.31
2023-01-19T22:51:20.360Z,99697.28
2023-01-19T22:54:23.200Z,99702.34
2023-01-19T22:57:25.033Z,99689.63
2023-01-19T23:00:26.879Z,99692.94
2023-01-19T23:03:29.141Z,99698.94
2023-01-19T23:06:32.307Z,99690.50
2023-01-19T23:09:34.324Z,99679.25
2023-01-19T23:12:36.270Z,99677.12
2023-01-19T23:15:38.145Z,99657.56
2023-01-19T23:18:40.472Z,99651.16
2023-01-19T23:21:42.710Z,99649.91
2023-01-19T23:24:44.586Z,99647.94
2023-01-19T23:27:46.435Z,99653.59
2023-01-19T23:30:48.616Z,99646.97
2023-01-19T23:33:51.194Z,99647.06
2023-01-19T23:36:53.013Z,99665.81
2023-01-19T23:39:54.969Z,99672.31
2023-01-19T23:42:56.998Z,99675.28
2023-01-19T23:46:02.729Z,99681.87
2023-01-19T23:49:04.618Z,99684.59
2023-01-19T23:52:06.629Z,99691.75
2023-01-19T23:55:08.852Z,99684.47
2023-01-19T23:58:10.911Z,99689.97
